sensor_id;sensor_type;location;lat;lon;timestamp;P1;durP1;ratioP1;P2;durP2;ratioP2
6561;SDS011;3314;50.890;4.722;2022-08-01T00:01:55;6.5;;;1.0;;
6561;SDS011;3314;50.890;4.722;2022-08-01T00:03:55;6.4;;;1.0;;
6561;SDS011;3314;50.890;4.722;2022-08-01T00:05:55;8.1;;;1.2;;
6561;SDS011;3314;50.890;4.722;2022-08-01T00:07:55;7.4;;;1.3;;
6561;SDS011;3314;50.890;4.722;2022-08-01T00:09:55;6.4;;;1.1;;
6561;SDS011;3314;50.890;4.722;2022-08-01T00:11:55;6.4;;;1.1;;
6561;SDS011;3314;50.890;4.722;2022-08-01T00:13:55;7.5;;;1.4;;
6561;SDS011;3314;50.890;4.722;2022-08-01T00:15:54;7.0;;;0.8;;
6561;SDS011;3314;50.890;4.722;2022-08-01T00:17:54;7.3;;;1.3;;
6561;SDS011;3314;50.890;4.722;2022-08-01T00:19:54;6.3;;;1.0;;
6561;SDS011;3314;50.890;4.722;2022-08-01T00:21:54;7.3;;;1.2;;
6561;SDS011;3314;50.890;4.722;2022-08-01T00:23:54;8.2;;;1.1;;
6561;SDS011;3314;50.890;4.722;2022-08-01T00:25:54;7.3;;;1.5;;
6561;SDS011;3314;50.890;4.722;2022-08-01T00:27:54;8.6;;;1.7;;
6561;SDS011;3314;50.890;4.722;2022-08-01T00:29:54;9.3;;;1.9;;
6561;SDS011;3314;50.890;4.722;2022-08-01T00:31:54;7.1;;;1.5;;
6561;SDS011;3314;50.890;4.722;2022-08-01T00:33:54;9.5;;;2.0;;
6561;SDS011;3314;50.890;4.722;2022-08-01T00:35:54;11.0;;;2.1;;
6561;SDS011;3314;50.890;4.722;2022-08-01T00:37:54;8.1;;;1.5;;
6561;SDS011;3314;50.890;4.722;2022-08-01T00:39:53;7.6;;;1.5;;
6561;SDS011;3314;50.890;4.722;2022-08-01T00:41:53;9.6;;;1.9;;
6561;SDS011;3314;50.890;4.722;2022-08-01T00:43:53;7.8;;;1.8;;
6561;SDS011;3314;50.890;4.722;2022-08-01T00:45:53;9.0;;;2.2;;
6561;SDS011;3314;50.890;4.722;2022-08-01T00:47:53;10.5;;;1.6;;
6561;SDS011;3314;50.890;4.722;2022-08-01T00:49:53;7.4;;;1.9;;
6561;SDS011;3314;50.890;4.722;2022-08-01T00:51:53;7.1;;;1.5;;
6561;SDS011;3314;50.890;4.722;2022-08-01T00:53:53;11.0;;;1.7;;
6561;SDS011;3314;50.890;4.722;2022-08-01T00:55:53;9.0;;;2.1;;
6561;SDS011;3314;50.890;4.722;2022-08-01T00:57:53;8.3;;;1.9;;
6561;SDS011;3314;50.890;4.722;2022-08-01T00:59:53;9.8;;;1.9;;
6561;SDS011;3314;50.890;4.722;2022-08-01T01:01:53;8.4;;;1.8;;
6561;SDS011;3314;50.890;4.722;2022-08-01T01:03:52;9.9;;;2.3;;
6561;SDS011;3314;50.890;4.722;2022-08-01T01:05:55;9.9;;;2.2;;
6561;SDS011;3314;50.890;4.722;2022-08-01T01:07:56;8.3;;;1.8;;
6561;SDS011;3314;50.890;4.722;2022-08-01T01:10:00;9.5;;;1.8;;
6561;SDS011;3314;50.890;4.722;2022-08-01T01:12:04;10.1;;;2.2;;
6561;SDS011;3314;50.890;4.722;2022-08-01T01:13:55;9.4;;;1.7;;
6561;SDS011;3314;50.890;4.722;2022-08-01T01:15:57;8.8;;;1.9;;
6561;SDS011;3314;50.890;4.722;2022-08-01T01:18:00;8.5;;;1.6;;
6561;SDS011;3314;50.890;4.722;2022-08-01T01:20:00;6.9;;;1.6;;
6561;SDS011;3314;50.890;4.722;2022-08-01T01:22:08;9.9;;;2.3;;
6561;SDS011;3314;50.890;4.722;2022-08-01T01:24:03;10.1;;;1.8;;
6561;SDS011;3314;50.890;4.722;2022-08-01T01:26:04;9.0;;;1.8;;
6561;SDS011;3314;50.890;4.722;2022-08-01T01:27:55;10.8;;;1.7;;
6561;SDS011;3314;50.890;4.722;2022-08-01T01:29:56;15.3;;;1.9;;
6561;SDS011;3314;50.890;4.722;2022-08-01T01:31:59;10.7;;;2.1;;
6561;SDS011;3314;50.890;4.722;2022-08-01T01:33:51;7.6;;;1.8;;
6561;SDS011;3314;50.890;4.722;2022-08-01T01:35:52;7.8;;;1.9;;
6561;SDS011;3314;50.890;4.722;2022-08-01T01:37:56;8.8;;;1.7;;
6561;SDS011;3314;50.890;4.722;2022-08-01T01:39:56;19.7;;;2.4;;
6561;SDS011;3314;50.890;4.722;2022-08-01T01:41:57;8.5;;;2.7;;
6561;SDS011;3314;50.890;4.722;2022-08-01T01:43:58;10.9;;;1.8;;
6561;SDS011;3314;50.890;4.722;2022-08-01T01:46:00;9.9;;;1.9;;
6561;SDS011;3314;50.890;4.722;2022-08-01T01:47:50;7.1;;;1.7;;
6561;SDS011;3314;50.890;4.722;2022-08-01T01:49:51;11.3;;;2.4;;
6561;SDS011;3314;50.890;4.722;2022-08-01T01:51:54;10.1;;;2.1;;
6561;SDS011;3314;50.890;4.722;2022-08-01T01:53:54;9.0;;;2.0;;
6561;SDS011;3314;50.890;4.722;2022-08-01T01:55:56;7.7;;;2.0;;
6561;SDS011;3314;50.890;4.722;2022-08-01T01:57:56;11.4;;;2.2;;
6561;SDS011;3314;50.890;4.722;2022-08-01T01:59:56;10.6;;;2.6;;
6561;SDS011;3314;50.890;4.722;2022-08-01T02:01:57;12.3;;;2.7;;
6561;SDS011;3314;50.890;4.722;2022-08-01T02:03:57;10.5;;;2.5;;
6561;SDS011;3314;50.890;4.722;2022-08-01T02:05:58;7.6;;;1.8;;
6561;SDS011;3314;50.890;4.722;2022-08-01T02:07:58;11.5;;;2.2;;
6561;SDS011;3314;50.890;4.722;2022-08-01T02:09:58;8.0;;;2.5;;
6561;SDS011;3314;50.890;4.722;2022-08-01T02:11:59;10.1;;;2.1;;
6561;SDS011;3314;50.890;4.722;2022-08-01T02:13:52;10.7;;;2.6;;
6561;SDS011;3314;50.890;4.722;2022-08-01T02:15:52;8.9;;;1.9;;
6561;SDS011;3314;50.890;4.722;2022-08-01T02:17:51;7.2;;;2.0;;
6561;SDS011;3314;50.890;4.722;2022-08-01T02:19:52;9.4;;;2.2;;
6561;SDS011;3314;50.890;4.722;2022-08-01T02:21:55;9.0;;;2.2;;
6561;SDS011;3314;50.890;4.722;2022-08-01T02:23:56;9.9;;;2.3;;
6561;SDS011;3314;50.890;4.722;2022-08-01T02:25:49;10.2;;;2.0;;
6561;SDS011;3314;50.890;4.722;2022-08-01T02:27:52;8.4;;;2.5;;
6561;SDS011;3314;50.890;4.722;2022-08-01T02:29:54;11.7;;;2.8;;
6561;SDS011;3314;50.890;4.722;2022-08-01T02:31:57;9.5;;;2.3;;
6561;SDS011;3314;50.890;4.722;2022-08-01T02:33:58;9.1;;;2.5;;
6561;SDS011;3314;50.890;4.722;2022-08-01T02:35:58;8.3;;;2.9;;
6561;SDS011;3314;50.890;4.722;2022-08-01T02:37:48;9.9;;;2.6;;
6561;SDS011;3314;50.890;4.722;2022-08-01T02:39:49;8.6;;;2.2;;
6561;SDS011;3314;50.890;4.722;2022-08-01T02:41:50;9.7;;;2.4;;
6561;SDS011;3314;50.890;4.722;2022-08-01T02:43:53;15.6;;;2.8;;
6561;SDS011;3314;50.890;4.722;2022-08-01T02:45:54;10.5;;;2.5;;
6561;SDS011;3314;50.890;4.722;2022-08-01T02:47:57;12.2;;;3.5;;
6561;SDS011;3314;50.890;4.722;2022-08-01T02:49:48;11.3;;;2.9;;
6561;SDS011;3314;50.890;4.722;2022-08-01T02:51:48;8.2;;;2.5;;
6561;SDS011;3314;50.890;4.722;2022-08-01T02:53:49;12.7;;;2.8;;
6561;SDS011;3314;50.890;4.722;2022-08-01T02:55:49;9.5;;;3.3;;
6561;SDS011;3314;50.890;4.722;2022-08-01T02:57:50;11.8;;;3.3;;
6561;SDS011;3314;50.890;4.722;2022-08-01T02:59:51;12.1;;;4.0;;
6561;SDS011;3314;50.890;4.722;2022-08-01T03:01:54;13.1;;;4.1;;
6561;SDS011;3314;50.890;4.722;2022-08-01T03:03:54;11.3;;;3.6;;
6561;SDS011;3314;50.890;4.722;2022-08-01T03:05:54;11.4;;;3.8;;
6561;SDS011;3314;50.890;4.722;2022-08-01T03:07:54;13.9;;;3.8;;
6561;SDS011;3314;50.890;4.722;2022-08-01T03:09:55;10.5;;;3.5;;
6561;SDS011;3314;50.890;4.722;2022-08-01T03:11:55;13.2;;;3.5;;
6561;SDS011;3314;50.890;4.722;2022-08-01T03:13:56;16.2;;;4.0;;
6561;SDS011;3314;50.890;4.722;2022-08-01T03:15:47;10.1;;;3.5;;
6561;SDS011;3314;50.890;4.722;2022-08-01T03:17:47;13.1;;;4.2;;
6561;SDS011;3314;50.890;4.722;2022-08-01T03:19:47;13.5;;;3.9;;
6561;SDS011;3314;50.890;4.722;2022-08-01T03:21:47;13.6;;;3.9;;
6561;SDS011;3314;50.890;4.722;2022-08-01T03:23:48;12.7;;;4.2;;
6561;SDS011;3314;50.890;4.722;2022-08-01T03:25:49;12.5;;;3.8;;
6561;SDS011;3314;50.890;4.722;2022-08-01T03:27:51;12.2;;;4.2;;
6561;SDS011;3314;50.890;4.722;2022-08-01T03:29:54;11.5;;;3.7;;
6561;SDS011;3314;50.890;4.722;2022-08-01T03:31:55;11.9;;;4.5;;
6561;SDS011;3314;50.890;4.722;2022-08-01T03:33:55;14.6;;;4.5;;
6561;SDS011;3314;50.890;4.722;2022-08-01T03:35:55;13.6;;;4.7;;
6561;SDS011;3314;50.890;4.722;2022-08-01T03:37:55;16.4;;;4.7;;
6561;SDS011;3314;50.890;4.722;2022-08-01T03:39:57;12.6;;;4.5;;
6561;SDS011;3314;50.890;4.722;2022-08-01T03:41:46;15.7;;;5.7;;
6561;SDS011;3314;50.890;4.722;2022-08-01T03:43:50;16.1;;;5.6;;
6561;SDS011;3314;50.890;4.722;2022-08-01T03:45:51;13.8;;;5.1;;
6561;SDS011;3314;50.890;4.722;2022-08-01T03:47:52;15.3;;;5.1;;
6561;SDS011;3314;50.890;4.722;2022-08-01T03:49:52;15.1;;;5.7;;
6561;SDS011;3314;50.890;4.722;2022-08-01T03:51:53;20.4;;;6.2;;
6561;SDS011;3314;50.890;4.722;2022-08-01T03:53:53;13.8;;;5.3;;
6561;SDS011;3314;50.890;4.722;2022-08-01T03:55:54;16.5;;;6.4;;
6561;SDS011;3314;50.890;4.722;2022-08-01T03:57:45;20.5;;;6.7;;
6561;SDS011;3314;50.890;4.722;2022-08-01T03:59:44;17.2;;;6.3;;
6561;SDS011;3314;50.890;4.722;2022-08-01T04:01:45;17.6;;;6.2;;
6561;SDS011;3314;50.890;4.722;2022-08-01T04:03:45;21.1;;;6.2;;
6561;SDS011;3314;50.890;4.722;2022-08-01T04:05:45;18.4;;;6.7;;
6561;SDS011;3314;50.890;4.722;2022-08-01T04:07:45;23.2;;;6.9;;
6561;SDS011;3314;50.890;4.722;2022-08-01T04:09:45;20.7;;;7.0;;
6561;SDS011;3314;50.890;4.722;2022-08-01T04:11:45;19.3;;;6.6;;
6561;SDS011;3314;50.890;4.722;2022-08-01T04:13:44;18.2;;;5.6;;
6561;SDS011;3314;50.890;4.722;2022-08-01T04:15:44;18.1;;;6.2;;
6561;SDS011;3314;50.890;4.722;2022-08-01T04:17:44;20.3;;;6.8;;
6561;SDS011;3314;50.890;4.722;2022-08-01T04:19:44;21.6;;;7.5;;
6561;SDS011;3314;50.890;4.722;2022-08-01T04:21:43;19.8;;;6.5;;
6561;SDS011;3314;50.890;4.722;2022-08-01T04:23:43;25.3;;;6.7;;
6561;SDS011;3314;50.890;4.722;2022-08-01T04:25:45;17.8;;;6.4;;
6561;SDS011;3314;50.890;4.722;2022-08-01T04:27:46;19.9;;;7.4;;
6561;SDS011;3314;50.890;4.722;2022-08-01T04:29:46;19.1;;;7.4;;
6561;SDS011;3314;50.890;4.722;2022-08-01T04:31:47;18.9;;;6.5;;
6561;SDS011;3314;50.890;4.722;2022-08-01T04:33:48;19.1;;;7.4;;
6561;SDS011;3314;50.890;4.722;2022-08-01T04:35:49;21.7;;;7.7;;
6561;SDS011;3314;50.890;4.722;2022-08-01T04:37:48;18.2;;;7.0;;
6561;SDS011;3314;50.890;4.722;2022-08-01T04:39:48;19.1;;;7.4;;
6561;SDS011;3314;50.890;4.722;2022-08-01T04:41:50;22.6;;;7.5;;
6561;SDS011;3314;50.890;4.722;2022-08-01T04:43:51;23.1;;;7.3;;
6561;SDS011;3314;50.890;4.722;2022-08-01T04:45:51;16.0;;;6.4;;
6561;SDS011;3314;50.890;4.722;2022-08-01T04:47:51;19.2;;;6.3;;
6561;SDS011;3314;50.890;4.722;2022-08-01T04:49:51;15.8;;;5.8;;
6561;SDS011;3314;50.890;4.722;2022-08-01T04:51:51;16.1;;;7.2;;
6561;SDS011;3314;50.890;4.722;2022-08-01T04:53:52;17.2;;;5.7;;
6561;SDS011;3314;50.890;4.722;2022-08-01T04:55:51;16.1;;;5.8;;
6561;SDS011;3314;50.890;4.722;2022-08-01T04:57:51;16.0;;;5.8;;
6561;SDS011;3314;50.890;4.722;2022-08-01T04:59:57;16.0;;;5.9;;
6561;SDS011;3314;50.890;4.722;2022-08-01T05:01:48;16.2;;;6.2;;
6561;SDS011;3314;50.890;4.722;2022-08-01T05:03:47;17.4;;;6.2;;
6561;SDS011;3314;50.890;4.722;2022-08-01T05:05:47;16.5;;;6.0;;
6561;SDS011;3314;50.890;4.722;2022-08-01T05:07:46;14.7;;;5.3;;
6561;SDS011;3314;50.890;4.722;2022-08-01T05:09:46;17.3;;;6.3;;
6561;SDS011;3314;50.890;4.722;2022-08-01T05:11:46;17.0;;;5.5;;
6561;SDS011;3314;50.890;4.722;2022-08-01T05:13:46;15.2;;;5.7;;
6561;SDS011;3314;50.890;4.722;2022-08-01T05:15:45;19.2;;;5.5;;
6561;SDS011;3314;50.890;4.722;2022-08-01T05:17:45;19.4;;;5.9;;
6561;SDS011;3314;50.890;4.722;2022-08-01T05:19:45;17.1;;;6.5;;
6561;SDS011;3314;50.890;4.722;2022-08-01T05:21:44;17.0;;;5.6;;
6561;SDS011;3314;50.890;4.722;2022-08-01T05:23:44;15.3;;;5.3;;
6561;SDS011;3314;50.890;4.722;2022-08-01T05:25:44;13.1;;;5.1;;
6561;SDS011;3314;50.890;4.722;2022-08-01T05:27:43;12.3;;;5.1;;
6561;SDS011;3314;50.890;4.722;2022-08-01T05:29:43;13.1;;;5.5;;
6561;SDS011;3314;50.890;4.722;2022-08-01T05:31:43;15.2;;;5.1;;
6561;SDS011;3314;50.890;4.722;2022-08-01T05:33:43;18.1;;;5.3;;
6561;SDS011;3314;50.890;4.722;2022-08-01T05:35:42;11.4;;;4.4;;
6561;SDS011;3314;50.890;4.722;2022-08-01T05:37:42;14.4;;;5.6;;
6561;SDS011;3314;50.890;4.722;2022-08-01T05:39:41;14.9;;;5.3;;
6561;SDS011;3314;50.890;4.722;2022-08-01T05:41:41;15.3;;;4.7;;
6561;SDS011;3314;50.890;4.722;2022-08-01T05:43:41;14.6;;;5.3;;
6561;SDS011;3314;50.890;4.722;2022-08-01T05:45:42;12.8;;;4.2;;
6561;SDS011;3314;50.890;4.722;2022-08-01T05:47:41;19.0;;;4.7;;
6561;SDS011;3314;50.890;4.722;2022-08-01T05:49:41;12.9;;;4.4;;
6561;SDS011;3314;50.890;4.722;2022-08-01T05:51:40;13.1;;;4.7;;
6561;SDS011;3314;50.890;4.722;2022-08-01T05:53:40;15.3;;;5.5;;
6561;SDS011;3314;50.890;4.722;2022-08-01T05:55:40;14.3;;;4.2;;
6561;SDS011;3314;50.890;4.722;2022-08-01T05:57:39;14.7;;;5.1;;
6561;SDS011;3314;50.890;4.722;2022-08-01T05:59:39;13.7;;;4.6;;
6561;SDS011;3314;50.890;4.722;2022-08-01T06:01:39;14.3;;;4.6;;
6561;SDS011;3314;50.890;4.722;2022-08-01T06:03:38;16.6;;;4.6;;
6561;SDS011;3314;50.890;4.722;2022-08-01T06:05:38;15.0;;;4.8;;
6561;SDS011;3314;50.890;4.722;2022-08-01T06:07:40;13.4;;;4.8;;
6561;SDS011;3314;50.890;4.722;2022-08-01T06:09:39;13.8;;;5.0;;
6561;SDS011;3314;50.890;4.722;2022-08-01T06:11:39;18.2;;;4.6;;
6561;SDS011;3314;50.890;4.722;2022-08-01T06:13:39;15.1;;;4.8;;
6561;SDS011;3314;50.890;4.722;2022-08-01T06:15:39;11.4;;;4.2;;
6561;SDS011;3314;50.890;4.722;2022-08-01T06:17:39;12.1;;;4.0;;
6561;SDS011;3314;50.890;4.722;2022-08-01T06:19:39;15.4;;;3.5;;
6561;SDS011;3314;50.890;4.722;2022-08-01T06:21:38;12.6;;;3.9;;
6561;SDS011;3314;50.890;4.722;2022-08-01T06:23:38;13.6;;;4.9;;
6561;SDS011;3314;50.890;4.722;2022-08-01T06:25:38;15.8;;;4.4;;
6561;SDS011;3314;50.890;4.722;2022-08-01T06:27:37;12.2;;;4.3;;
6561;SDS011;3314;50.890;4.722;2022-08-01T06:29:37;12.4;;;4.6;;
6561;SDS011;3314;50.890;4.722;2022-08-01T06:31:37;12.0;;;4.1;;
6561;SDS011;3314;50.890;4.722;2022-08-01T06:33:37;13.2;;;4.6;;
6561;SDS011;3314;50.890;4.722;2022-08-01T06:35:37;13.9;;;3.4;;
6561;SDS011;3314;50.890;4.722;2022-08-01T06:37:37;12.3;;;3.4;;
6561;SDS011;3314;50.890;4.722;2022-08-01T06:39:36;11.4;;;3.7;;
6561;SDS011;3314;50.890;4.722;2022-08-01T06:41:36;11.8;;;3.6;;
6561;SDS011;3314;50.890;4.722;2022-08-01T06:43:36;12.9;;;3.6;;
6561;SDS011;3314;50.890;4.722;2022-08-01T06:45:37;12.7;;;4.0;;
6561;SDS011;3314;50.890;4.722;2022-08-01T06:47:36;13.6;;;3.9;;
6561;SDS011;3314;50.890;4.722;2022-08-01T06:49:36;13.0;;;3.9;;
6561;SDS011;3314;50.890;4.722;2022-08-01T06:51:36;10.4;;;3.1;;
6561;SDS011;3314;50.890;4.722;2022-08-01T06:53:36;10.2;;;3.2;;
6561;SDS011;3314;50.890;4.722;2022-08-01T06:55:36;14.5;;;3.3;;
6561;SDS011;3314;50.890;4.722;2022-08-01T06:57:36;11.0;;;3.2;;
6561;SDS011;3314;50.890;4.722;2022-08-01T06:59:36;11.6;;;3.4;;
6561;SDS011;3314;50.890;4.722;2022-08-01T07:01:36;9.8;;;3.3;;
6561;SDS011;3314;50.890;4.722;2022-08-01T07:03:35;10.2;;;3.3;;
6561;SDS011;3314;50.890;4.722;2022-08-01T07:05:35;12.6;;;3.1;;
6561;SDS011;3314;50.890;4.722;2022-08-01T07:07:35;10.8;;;2.9;;
6561;SDS011;3314;50.890;4.722;2022-08-01T07:09:35;11.1;;;3.0;;
6561;SDS011;3314;50.890;4.722;2022-08-01T07:11:35;11.6;;;2.5;;
6561;SDS011;3314;50.890;4.722;2022-08-01T07:13:35;9.6;;;2.5;;
6561;SDS011;3314;50.890;4.722;2022-08-01T07:15:35;10.6;;;2.8;;
6561;SDS011;3314;50.890;4.722;2022-08-01T07:17:36;11.7;;;3.0;;
6561;SDS011;3314;50.890;4.722;2022-08-01T07:19:37;8.4;;;2.4;;
6561;SDS011;3314;50.890;4.722;2022-08-01T07:21:37;12.9;;;2.7;;
6561;SDS011;3314;50.890;4.722;2022-08-01T07:23:36;11.6;;;2.9;;
6561;SDS011;3314;50.890;4.722;2022-08-01T07:25:36;11.1;;;2.5;;
6561;SDS011;3314;50.890;4.722;2022-08-01T07:27:36;8.5;;;2.3;;
6561;SDS011;3314;50.890;4.722;2022-08-01T07:29:35;9.6;;;2.5;;
6561;SDS011;3314;50.890;4.722;2022-08-01T07:31:35;10.7;;;3.2;;
6561;SDS011;3314;50.890;4.722;2022-08-01T07:33:35;10.1;;;3.1;;
6561;SDS011;3314;50.890;4.722;2022-08-01T07:35:34;10.7;;;2.6;;
6561;SDS011;3314;50.890;4.722;2022-08-01T07:37:34;10.5;;;2.7;;
6561;SDS011;3314;50.890;4.722;2022-08-01T07:39:34;9.1;;;2.6;;
6561;SDS011;3314;50.890;4.722;2022-08-01T07:41:34;10.6;;;3.4;;
6561;SDS011;3314;50.890;4.722;2022-08-01T07:43:36;8.5;;;2.5;;
6561;SDS011;3314;50.890;4.722;2022-08-01T07:45:35;8.5;;;2.5;;
6561;SDS011;3314;50.890;4.722;2022-08-01T07:47:35;11.4;;;2.9;;
6561;SDS011;3314;50.890;4.722;2022-08-01T07:49:35;10.7;;;3.5;;
6561;SDS011;3314;50.890;4.722;2022-08-01T07:51:35;9.4;;;3.1;;
6561;SDS011;3314;50.890;4.722;2022-08-01T07:53:34;10.1;;;2.9;;
6561;SDS011;3314;50.890;4.722;2022-08-01T07:55:34;8.8;;;3.0;;
6561;SDS011;3314;50.890;4.722;2022-08-01T07:57:33;7.9;;;2.9;;
6561;SDS011;3314;50.890;4.722;2022-08-01T07:59:33;9.2;;;2.6;;
6561;SDS011;3314;50.890;4.722;2022-08-01T08:01:33;12.1;;;3.3;;
6561;SDS011;3314;50.890;4.722;2022-08-01T08:03:33;11.1;;;2.6;;
6561;SDS011;3314;50.890;4.722;2022-08-01T08:05:35;7.6;;;2.0;;
6561;SDS011;3314;50.890;4.722;2022-08-01T08:07:35;9.5;;;1.8;;
6561;SDS011;3314;50.890;4.722;2022-08-01T08:09:34;7.7;;;1.9;;
6561;SDS011;3314;50.890;4.722;2022-08-01T08:11:34;9.3;;;2.1;;
6561;SDS011;3314;50.890;4.722;2022-08-01T08:13:34;9.6;;;2.0;;
6561;SDS011;3314;50.890;4.722;2022-08-01T08:15:33;9.7;;;1.9;;
6561;SDS011;3314;50.890;4.722;2022-08-01T08:17:34;6.8;;;1.9;;
6561;SDS011;3314;50.890;4.722;2022-08-01T08:19:34;8.0;;;2.0;;
6561;SDS011;3314;50.890;4.722;2022-08-01T08:21:33;7.5;;;2.2;;
6561;SDS011;3314;50.890;4.722;2022-08-01T08:24:37;9.4;;;2.4;;
6561;SDS011;3314;50.890;4.722;2022-08-01T08:25:36;9.3;;;2.2;;
6561;SDS011;3314;50.890;4.722;2022-08-01T08:27:36;9.0;;;2.4;;
6561;SDS011;3314;50.890;4.722;2022-08-01T08:29:36;8.4;;;2.5;;
6561;SDS011;3314;50.890;4.722;2022-08-01T08:31:36;10.1;;;2.1;;
6561;SDS011;3314;50.890;4.722;2022-08-01T08:33:36;9.4;;;2.6;;
6561;SDS011;3314;50.890;4.722;2022-08-01T08:35:36;8.8;;;2.4;;
6561;SDS011;3314;50.890;4.722;2022-08-01T08:37:38;8.0;;;2.5;;
6561;SDS011;3314;50.890;4.722;2022-08-01T08:39:37;10.4;;;2.4;;
6561;SDS011;3314;50.890;4.722;2022-08-01T08:41:37;7.4;;;2.2;;
6561;SDS011;3314;50.890;4.722;2022-08-01T08:43:37;10.8;;;2.9;;
6561;SDS011;3314;50.890;4.722;2022-08-01T08:45:37;8.1;;;2.7;;
6561;SDS011;3314;50.890;4.722;2022-08-01T08:47:36;8.0;;;2.4;;
6561;SDS011;3314;50.890;4.722;2022-08-01T08:49:36;10.5;;;2.5;;
6561;SDS011;3314;50.890;4.722;2022-08-01T08:51:38;7.8;;;2.6;;
6561;SDS011;3314;50.890;4.722;2022-08-01T08:53:38;8.6;;;2.2;;
6561;SDS011;3314;50.890;4.722;2022-08-01T08:55:39;10.9;;;2.5;;
6561;SDS011;3314;50.890;4.722;2022-08-01T08:57:40;9.7;;;2.3;;
6561;SDS011;3314;50.890;4.722;2022-08-01T08:59:31;8.5;;;2.0;;
6561;SDS011;3314;50.890;4.722;2022-08-01T09:01:32;8.1;;;2.3;;
6561;SDS011;3314;50.890;4.722;2022-08-01T09:03:32;6.9;;;1.8;;
6561;SDS011;3314;50.890;4.722;2022-08-01T09:05:32;8.7;;;2.4;;
6561;SDS011;3314;50.890;4.722;2022-08-01T09:07:32;7.8;;;2.3;;
6561;SDS011;3314;50.890;4.722;2022-08-01T09:09:31;7.0;;;1.9;;
6561;SDS011;3314;50.890;4.722;2022-08-01T09:11:32;8.0;;;1.9;;
6561;SDS011;3314;50.890;4.722;2022-08-01T09:13:31;6.9;;;2.2;;
6561;SDS011;3314;50.890;4.722;2022-08-01T09:15:38;9.0;;;2.0;;
6561;SDS011;3314;50.890;4.722;2022-08-01T09:17:39;7.6;;;1.8;;
6561;SDS011;3314;50.890;4.722;2022-08-01T09:19:42;9.7;;;2.4;;
6561;SDS011;3314;50.890;4.722;2022-08-01T09:21:30;8.7;;;1.9;;
6561;SDS011;3314;50.890;4.722;2022-08-01T09:23:31;9.7;;;2.0;;
6561;SDS011;3314;50.890;4.722;2022-08-01T09:25:50;8.2;;;1.9;;
6561;SDS011;3314;50.890;4.722;2022-08-01T09:27:39;8.7;;;2.4;;
6561;SDS011;3314;50.890;4.722;2022-08-01T09:29:38;9.6;;;2.1;;
6561;SDS011;3314;50.890;4.722;2022-08-01T09:31:40;7.5;;;2.2;;
6561;SDS011;3314;50.890;4.722;2022-08-01T09:33:48;7.3;;;2.3;;
6561;SDS011;3314;50.890;4.722;2022-08-01T09:35:37;8.5;;;2.5;;
6561;SDS011;3314;50.890;4.722;2022-08-01T09:37:37;8.4;;;2.8;;
6561;SDS011;3314;50.890;4.722;2022-08-01T09:39:38;9.7;;;2.5;;
6561;SDS011;3314;50.890;4.722;2022-08-01T09:41:38;11.5;;;3.0;;
6561;SDS011;3314;50.890;4.722;2022-08-01T09:43:38;9.8;;;2.5;;
6561;SDS011;3314;50.890;4.722;2022-08-01T09:45:38;9.0;;;2.4;;
6561;SDS011;3314;50.890;4.722;2022-08-01T09:47:38;8.9;;;2.2;;
6561;SDS011;3314;50.890;4.722;2022-08-01T09:49:39;7.4;;;2.0;;
6561;SDS011;3314;50.890;4.722;2022-08-01T09:51:39;7.4;;;1.9;;
6561;SDS011;3314;50.890;4.722;2022-08-01T09:53:40;7.7;;;1.8;;
6561;SDS011;3314;50.890;4.722;2022-08-01T09:55:29;8.2;;;2.2;;
6561;SDS011;3314;50.890;4.722;2022-08-01T09:57:29;6.9;;;1.9;;
6561;SDS011;3314;50.890;4.722;2022-08-01T10:00:04;7.4;;;1.9;;
6561;SDS011;3314;50.890;4.722;2022-08-01T10:01:41;10.9;;;1.9;;
6561;SDS011;3314;50.890;4.722;2022-08-01T10:03:30;7.9;;;2.1;;
6561;SDS011;3314;50.890;4.722;2022-08-01T10:05:30;8.2;;;2.2;;
6561;SDS011;3314;50.890;4.722;2022-08-01T10:07:30;7.8;;;1.8;;
6561;SDS011;3314;50.890;4.722;2022-08-01T10:09:31;8.0;;;2.0;;
6561;SDS011;3314;50.890;4.722;2022-08-01T10:11:32;8.2;;;2.1;;
6561;SDS011;3314;50.890;4.722;2022-08-01T10:13:32;8.6;;;1.9;;
6561;SDS011;3314;50.890;4.722;2022-08-01T10:15:32;10.7;;;1.7;;
6561;SDS011;3314;50.890;4.722;2022-08-01T10:17:32;6.9;;;1.6;;
6561;SDS011;3314;50.890;4.722;2022-08-01T10:19:34;7.6;;;1.9;;
6561;SDS011;3314;50.890;4.722;2022-08-01T10:21:34;8.0;;;2.1;;
6561;SDS011;3314;50.890;4.722;2022-08-01T10:23:37;9.4;;;2.3;;
6561;SDS011;3314;50.890;4.722;2022-08-01T10:25:39;7.4;;;1.8;;
6561;SDS011;3314;50.890;4.722;2022-08-01T10:27:28;10.2;;;1.8;;
6561;SDS011;3314;50.890;4.722;2022-08-01T10:29:29;9.1;;;2.3;;
6561;SDS011;3314;50.890;4.722;2022-08-01T10:31:33;6.9;;;1.9;;
6561;SDS011;3314;50.890;4.722;2022-08-01T10:33:33;8.8;;;1.8;;
6561;SDS011;3314;50.890;4.722;2022-08-01T10:35:33;6.7;;;1.8;;
6561;SDS011;3314;50.890;4.722;2022-08-01T10:37:34;7.1;;;1.6;;
6561;SDS011;3314;50.890;4.722;2022-08-01T10:39:34;10.6;;;1.8;;
6561;SDS011;3314;50.890;4.722;2022-08-01T10:41:34;7.5;;;1.7;;
6561;SDS011;3314;50.890;4.722;2022-08-01T10:43:34;8.8;;;1.8;;
6561;SDS011;3314;50.890;4.722;2022-08-01T10:45:34;7.0;;;1.5;;
6561;SDS011;3314;50.890;4.722;2022-08-01T10:47:44;7.5;;;1.6;;
6561;SDS011;3314;50.890;4.722;2022-08-01T10:49:34;6.9;;;1.8;;
6561;SDS011;3314;50.890;4.722;2022-08-01T10:51:37;7.2;;;1.7;;
6561;SDS011;3314;50.890;4.722;2022-08-01T10:53:37;8.3;;;1.7;;
6561;SDS011;3314;50.890;4.722;2022-08-01T10:55:44;9.9;;;2.3;;
6561;SDS011;3314;50.890;4.722;2022-08-01T10:57:45;7.0;;;1.8;;
6561;SDS011;3314;50.890;4.722;2022-08-01T10:59:33;8.3;;;2.0;;
6561;SDS011;3314;50.890;4.722;2022-08-01T11:01:33;7.4;;;2.1;;
6561;SDS011;3314;50.890;4.722;2022-08-01T11:03:34;7.1;;;2.1;;
6561;SDS011;3314;50.890;4.722;2022-08-01T11:05:35;8.7;;;2.4;;
6561;SDS011;3314;50.890;4.722;2022-08-01T11:07:38;6.8;;;1.8;;
6561;SDS011;3314;50.890;4.722;2022-08-01T11:09:29;8.0;;;2.3;;
6561;SDS011;3314;50.890;4.722;2022-08-01T11:11:29;7.6;;;1.9;;
6561;SDS011;3314;50.890;4.722;2022-08-01T11:14:00;8.7;;;1.7;;
6561;SDS011;3314;50.890;4.722;2022-08-01T11:15:36;10.1;;;2.1;;
6561;SDS011;3314;50.890;4.722;2022-08-01T11:17:36;8.5;;;2.2;;
6561;SDS011;3314;50.890;4.722;2022-08-01T11:20:03;8.0;;;2.2;;
6561;SDS011;3314;50.890;4.722;2022-08-01T11:21:58;10.5;;;1.6;;
6561;SDS011;3314;50.890;4.722;2022-08-01T11:23:34;6.9;;;1.7;;
6561;SDS011;3314;50.890;4.722;2022-08-01T11:26:06;7.0;;;1.9;;
6561;SDS011;3314;50.890;4.722;2022-08-01T11:27:31;6.8;;;1.4;;
6561;SDS011;3314;50.890;4.722;2022-08-01T11:29:31;6.8;;;1.8;;
6561;SDS011;3314;50.890;4.722;2022-08-01T11:31:31;13.0;;;1.8;;
6561;SDS011;3314;50.890;4.722;2022-08-01T11:33:48;7.0;;;1.8;;
6561;SDS011;3314;50.890;4.722;2022-08-01T11:35:36;7.4;;;1.9;;
6561;SDS011;3314;50.890;4.722;2022-08-01T11:37:36;6.9;;;1.8;;
6561;SDS011;3314;50.890;4.722;2022-08-01T11:39:36;9.5;;;2.0;;
6561;SDS011;3314;50.890;4.722;2022-08-01T11:41:37;7.7;;;2.1;;
6561;SDS011;3314;50.890;4.722;2022-08-01T11:43:38;6.7;;;1.4;;
6561;SDS011;3314;50.890;4.722;2022-08-01T11:45:41;8.3;;;1.7;;
6561;SDS011;3314;50.890;4.722;2022-08-01T11:47:49;7.0;;;2.0;;
6561;SDS011;3314;50.890;4.722;2022-08-01T11:49:45;8.8;;;1.5;;
6561;SDS011;3314;50.890;4.722;2022-08-01T11:51:32;8.5;;;2.2;;
6561;SDS011;3314;50.890;4.722;2022-08-01T11:53:33;6.2;;;1.3;;
6561;SDS011;3314;50.890;4.722;2022-08-01T11:55:35;7.9;;;1.4;;
6561;SDS011;3314;50.890;4.722;2022-08-01T11:57:35;7.8;;;1.9;;
6561;SDS011;3314;50.890;4.722;2022-08-01T11:59:36;9.5;;;1.5;;
6561;SDS011;3314;50.890;4.722;2022-08-01T12:01:36;8.1;;;1.6;;
6561;SDS011;3314;50.890;4.722;2022-08-01T12:03:36;7.0;;;1.2;;
6561;SDS011;3314;50.890;4.722;2022-08-01T12:05:37;6.5;;;1.3;;
6561;SDS011;3314;50.890;4.722;2022-08-01T12:07:27;8.5;;;1.1;;
6561;SDS011;3314;50.890;4.722;2022-08-01T12:09:27;6.8;;;1.4;;
6561;SDS011;3314;50.890;4.722;2022-08-01T12:11:27;8.0;;;1.2;;
6561;SDS011;3314;50.890;4.722;2022-08-01T12:13:27;8.7;;;1.2;;
6561;SDS011;3314;50.890;4.722;2022-08-01T12:15:30;9.7;;;1.3;;
6561;SDS011;3314;50.890;4.722;2022-08-01T12:17:31;5.8;;;0.8;;
6561;SDS011;3314;50.890;4.722;2022-08-01T12:19:31;7.8;;;1.8;;
6561;SDS011;3314;50.890;4.722;2022-08-01T12:21:31;6.4;;;1.0;;
6561;SDS011;3314;50.890;4.722;2022-08-01T12:23:31;8.6;;;1.0;;
6561;SDS011;3314;50.890;4.722;2022-08-01T12:25:31;7.2;;;1.2;;
6561;SDS011;3314;50.890;4.722;2022-08-01T12:27:30;6.4;;;0.9;;
6561;SDS011;3314;50.890;4.722;2022-08-01T12:29:32;7.2;;;1.1;;
6561;SDS011;3314;50.890;4.722;2022-08-01T12:31:32;7.7;;;1.1;;
6561;SDS011;3314;50.890;4.722;2022-08-01T12:33:32;6.4;;;0.7;;
6561;SDS011;3314;50.890;4.722;2022-08-01T12:35:32;7.2;;;0.8;;
6561;SDS011;3314;50.890;4.722;2022-08-01T12:37:32;6.0;;;0.7;;
6561;SDS011;3314;50.890;4.722;2022-08-01T12:39:34;10.2;;;0.9;;
6561;SDS011;3314;50.890;4.722;2022-08-01T12:41:36;6.6;;;0.9;;
6561;SDS011;3314;50.890;4.722;2022-08-01T12:43:26;7.1;;;0.8;;